sensor_id;sensor_type;location;lat;lon;timestamp;temperature;humidity
21805;DHT22;11064;47.102;15.452;2023-03-05T06:02:22;-1.60;99.90
21805;DHT22;11064;47.102;15.452;2023-03-05T06:04:48;-1.50;99.90
21805;DHT22;11064;47.102;15.452;2023-03-05T06:07:14;-1.40;99.90
21805;DHT22;11064;47.102;15.452;2023-03-05T06:09:39;-1.30;99.90
21805;DHT22;11064;47.102;15.452;2023-03-05T06:12:06;-1.30;99.90
21805;DHT22;11064;47.102;15.452;2023-03-05T06:14:32;-1.30;99.90
21805;DHT22;11064;47.102;15.452;2023-03-05T06:16:58;-1.20;99.90
21805;DHT22;11064;47.102;15.452;2023-03-05T06:19:23;-1.10;99.90
21805;DHT22;11064;47.102;15.452;2023-03-05T06:21:49;-1.00;99.90
21805;DHT22;11064;47.102;15.452;2023-03-05T06:24:15;-0.90;99.90
21805;DHT22;11064;47.102;15.452;2023-03-05T06:26:41;-0.80;99.90
21805;DHT22;11064;47.102;15.452;2023-03-05T06:29:07;-0.70;99.90
21805;DHT22;11064;47.102;15.452;2023-03-05T06:31:32;-0.60;99.90
21805;DHT22;11064;47.102;15.452;2023-03-05T06:33:59;-0.50;99.90
21805;DHT22;11064;47.102;15.452;2023-03-05T06:36:28;-0.50;99.90
21805;DHT22;11064;47.102;15.452;2023-03-05T06:38:55;-0.40;99.90
21805;DHT22;11064;47.102;15.452;2023-03-05T06:41:24;-0.40;99.90
21805;DHT22;11064;47.102;15.452;2023-03-05T06:43:51;-0.30;99.90
21805;DHT22;11064;47.102;15.452;2023-03-05T06:46:22;-0.20;99.90
21805;DHT22;11064;47.102;15.452;2023-03-05T06:48:50;-0.10;99.90
21805;DHT22;11064;47.102;15.452;2023-03-05T06:51:21;-0.10;99.90
21805;DHT22;11064;47.102;15.452;2023-03-05T06:53:50;0.10;99.90
21805;DHT22;11064;47.102;15.452;2023-03-05T06:56:17;0.20;99.90
21805;DHT22;11064;47.102;15.452;2023-03-05T06:58:44;0.30;99.90
21805;DHT22;11064;47.102;15.452;2023-03-05T07:01:12;0.30;99.90
21805;DHT22;11064;47.102;15.452;2023-03-05T07:03:39;0.40;99.90
21805;DHT22;11064;47.102;15.452;2023-03-05T07:06:07;0.60;99.90
21805;DHT22;11064;47.102;15.452;2023-03-05T07:08:33;0.80;99.90
21805;DHT22;11064;47.102;15.452;2023-03-05T07:11:00;1.00;99.90
21805;DHT22;11064;47.102;15.452;2023-03-05T07:13:27;1.00;99.90
21805;DHT22;11064;47.102;15.452;2023-03-05T07:15:53;1.10;99.90
21805;DHT22;11064;47.102;15.452;2023-03-05T07:18:19;1.10;99.90
21805;DHT22;11064;47.102;15.452;2023-03-05T07:20:45;1.30;99.90
21805;DHT22;11064;47.102;15.452;2023-03-05T07:23:11;1.40;99.90
21805;DHT22;11064;47.102;15.452;2023-03-05T07:25:38;1.50;99.90
21805;DHT22;11064;47.102;15.452;2023-03-05T07:28:05;1.60;99.90
21805;DHT22;11064;47.102;15.452;2023-03-05T07:30:32;1.70;99.90
21805;DHT22;11064;47.102;15.452;2023-03-05T07:32:58;1.90;99.90
21805;DHT22;11064;47.102;15.452;2023-03-05T07:35:24;1.90;99.90
21805;DHT22;11064;47.102;15.452;2023-03-05T07:37:50;2.10;99.90
21805;DHT22;11064;47.102;15.452;2023-03-05T07:40:17;2.10;99.90
21805;DHT22;11064;47.102;15.452;2023-03-05T07:42:42;2.20;99.90
21805;DHT22;11064;47.102;15.452;2023-03-05T07:45:09;2.20;99.90
21805;DHT22;11064;47.102;15.452;2023-03-05T07:47:35;2.20;99.90
21805;DHT22;11064;47.102;15.452;2023-03-05T07:50:01;2.20;99.90
21805;DHT22;11064;47.102;15.452;2023-03-05T07:52:27;2.30;99.90
21805;DHT22;11064;47.102;15.452;2023-03-05T07:54:53;2.40;99.90
21805;DHT22;11064;47.102;15.452;2023-03-05T07:57:19;2.50;99.90
21805;DHT22;11064;47.102;15.452;2023-03-05T07:59:45;2.60;99.90
21805;DHT22;11064;47.102;15.452;2023-03-05T08:02:12;2.70;99.90
21805;DHT22;11064;47.102;15.452;2023-03-05T08:04:38;2.70;99.90
21805;DHT22;11064;47.102;15.452;2023-03-05T08:07:04;2.80;99.90
21805;DHT22;11064;47.102;15.452;2023-03-05T08:09:30;2.90;99.90
21805;DHT22;11064;47.102;15.452;2023-03-05T08:11:56;3.10;99.90
21805;DHT22;11064;47.102;15.452;2023-03-05T08:14:21;3.20;99.90
21805;DHT22;11064;47.102;15.452;2023-03-05T08:16:47;3.40;99.90
21805;DHT22;11064;47.102;15.452;2023-03-05T08:19:18;3.50;99.90
21805;DHT22;11064;47.102;15.452;2023-03-05T08:21:45;3.70;99.90
21805;DHT22;11064;47.102;15.452;2023-03-05T08:24:11;3.90;99.90
21805;DHT22;11064;47.102;15.452;2023-03-05T08:26:38;4.10;99.90
21805;DHT22;11064;47.102;15.452;2023-03-05T08:29:06;4.20;99.90
21805;DHT22;11064;47.102;15.452;2023-03-05T08:31:32;4.30;99.90
21805;DHT22;11064;47.102;15.452;2023-03-05T08:33:59;4.50;99.90
21805;DHT22;11064;47.102;15.452;2023-03-05T08:36:27;4.50;99.90
21805;DHT22;11064;47.102;15.452;2023-03-05T08:38:53;4.80;99.90
21805;DHT22;11064;47.102;15.452;2023-03-05T08:41:20;4.90;99.90
21805;DHT22;11064;47.102;15.452;2023-03-05T08:43:46;5.00;99.90
21805;DHT22;11064;47.102;15.452;2023-03-05T08:46:13;5.10;99.90
21805;DHT22;11064;47.102;15.452;2023-03-05T08:48:39;5.30;99.90
21805;DHT22;11064;47.102;15.452;2023-03-05T08:51:13;5.50;99.90
21805;DHT22;11064;47.102;15.452;2023-03-05T08:53:39;5.70;99.90
21805;DHT22;11064;47.102;15.452;2023-03-05T08:56:05;5.80;99.90
21805;DHT22;11064;47.102;15.452;2023-03-05T08:58:32;6.00;99.90
21805;DHT22;11064;47.102;15.452;2023-03-05T09:00:58;6.10;99.90
21805;DHT22;11064;47.102;15.452;2023-03-05T09:03:24;6.20;99.90
21805;DHT22;11064;47.102;15.452;2023-03-05T09:05:50;6.60;99.90
21805;DHT22;11064;47.102;15.452;2023-03-05T09:08:17;6.80;99.40
21805;DHT22;11064;47.102;15.452;2023-03-05T09:10:44;7.00;97.70
21805;DHT22;11064;47.102;15.452;2023-03-05T09:13:10;7.40;97.20
21805;DHT22;11064;47.102;15.452;2023-03-05T09:15:36;7.30;96.30
21805;DHT22;11064;47.102;15.452;2023-03-05T09:18:02;7.50;95.80
21805;DHT22;11064;47.102;15.452;2023-03-05T09:20:28;7.90;95.10
21805;DHT22;11064;47.102;15.452;2023-03-05T09:22:54;7.90;94.40
21805;DHT22;11064;47.102;15.452;2023-03-05T09:25:20;8.10;93.30
21805;DHT22;11064;47.102;15.452;2023-03-05T09:27:47;8.30;93.50
21805;DHT22;11064;47.102;15.452;2023-03-05T09:30:13;8.50;92.20
21805;DHT22;11064;47.102;15.452;2023-03-05T09:32:39;8.80;91.30
21805;DHT22;11064;47.102;15.452;2023-03-05T09:35:05;8.90;90.90
21805;DHT22;11064;47.102;15.452;2023-03-05T09:37:32;9.30;90.00
21805;DHT22;11064;47.102;15.452;2023-03-05T09:39:58;9.80;88.50
21805;DHT22;11064;47.102;15.452;2023-03-05T09:45:34;10.20;82.40
21805;DHT22;11064;47.102;15.452;2023-03-05T09:48:24;10.40;80.80
21805;DHT22;11064;47.102;15.452;2023-03-05T09:50:55;10.50;77.50
21805;DHT22;11064;47.102;15.452;2023-03-05T09:54:30;10.70;78.90
21805;DHT22;11064;47.102;15.452;2023-03-05T09:56:27;10.50;74.20
21805;DHT22;11064;47.102;15.452;2023-03-05T10:01:39;9.60;79.20
21805;DHT22;11064;47.102;15.452;2023-03-05T10:04:17;9.80;79.60
21805;DHT22;11064;47.102;15.452;2023-03-05T10:12:00;9.40;77.50
21805;DHT22;11064;47.102;15.452;2023-03-05T10:14:30;9.60;79.00
21805;DHT22;11064;47.102;15.452;2023-03-05T10:22:55;9.70;77.50
21805;DHT22;11064;47.102;15.452;2023-03-05T10:25:46;9.90;76.20
21805;DHT22;11064;47.102;15.452;2023-03-05T10:42:33;9.60;77.40
21805;DHT22;11064;47.102;15.452;2023-03-05T10:45:11;9.80;76.30
21805;DHT22;11064;47.102;15.452;2023-03-05T10:47:50;9.50;76.40
21805;DHT22;11064;47.102;15.452;2023-03-05T10:50:21;9.60;75.70
21805;DHT22;11064;47.102;15.452;2023-03-05T10:53:34;9.70;74.40
21805;DHT22;11064;47.102;15.452;2023-03-05T10:55:40;9.80;75.70
21805;DHT22;11064;47.102;15.452;2023-03-05T10:58:14;9.80;74.70
21805;DHT22;11064;47.102;15.452;2023-03-05T11:00:58;9.70;75.80
21805;DHT22;11064;47.102;15.452;2023-03-05T11:03:24;9.50;74.70
21805;DHT22;11064;47.102;15.452;2023-03-05T11:05:58;9.40;74.70
21805;DHT22;11064;47.102;15.452;2023-03-05T11:08:31;9.60;75.80
21805;DHT22;11064;47.102;15.452;2023-03-05T11:11:16;9.50;75.50
21805;DHT22;11064;47.102;15.452;2023-03-05T11:13:56;9.60;75.80
21805;DHT22;11064;47.102;15.452;2023-03-05T11:16:29;9.50;76.80
21805;DHT22;11064;47.102;15.452;2023-03-05T11:19:20;9.80;77.70
21805;DHT22;11064;47.102;15.452;2023-03-05T11:24:39;9.90;75.30
21805;DHT22;11064;47.102;15.452;2023-03-05T11:27:25;9.60;75.10
21805;DHT22;11064;47.102;15.452;2023-03-05T11:29:54;9.70;74.00
21805;DHT22;11064;47.102;15.452;2023-03-05T11:32:26;10.00;73.60
21805;DHT22;11064;47.102;15.452;2023-03-05T11:34:54;10.10;72.90
21805;DHT22;11064;47.102;15.452;2023-03-05T11:37:30;10.10;71.80
21805;DHT22;11064;47.102;15.452;2023-03-05T11:40:28;10.10;71.00
21805;DHT22;11064;47.102;15.452;2023-03-05T11:42:57;10.00;71.20
21805;DHT22;11064;47.102;15.452;2023-03-05T11:45:24;9.80;71.80
21805;DHT22;11064;47.102;15.452;2023-03-05T11:48:27;9.80;71.90
21805;DHT22;11064;47.102;15.452;2023-03-05T11:50:58;10.00;72.50
21805;DHT22;11064;47.102;15.452;2023-03-05T11:53:35;9.80;71.40
21805;DHT22;11064;47.102;15.452;2023-03-05T11:56:26;9.80;73.30
21805;DHT22;11064;47.102;15.452;2023-03-05T12:21:51;10.50;67.80
21805;DHT22;11064;47.102;15.452;2023-03-05T12:31:56;10.30;69.10
21805;DHT22;11064;47.102;15.452;2023-03-05T12:45:28;9.30;71.50
21805;DHT22;11064;47.102;15.452;2023-03-05T13:02:02;9.30;73.70
21805;DHT22;11064;47.102;15.452;2023-03-05T13:04:31;9.20;70.50
21805;DHT22;11064;47.102;15.452;2023-03-05T13:07:04;9.20;71.70
21805;DHT22;11064;47.102;15.452;2023-03-05T13:09:32;9.40;72.40
21805;DHT22;11064;47.102;15.452;2023-03-05T13:12:03;9.60;70.00
21805;DHT22;11064;47.102;15.452;2023-03-05T13:14:42;9.70;71.30
21805;DHT22;11064;47.102;15.452;2023-03-05T13:17:33;9.50;68.90
21805;DHT22;11064;47.102;15.452;2023-03-05T13:20:01;9.70;69.80
21805;DHT22;11064;47.102;15.452;2023-03-05T13:22:30;9.90;69.00
21805;DHT22;11064;47.102;15.452;2023-03-05T13:25:16;9.80;69.50
21805;DHT22;11064;47.102;15.452;2023-03-05T13:27:45;9.60;69.20
21805;DHT22;11064;47.102;15.452;2023-03-05T13:30:28;9.40;70.00
21805;DHT22;11064;47.102;15.452;2023-03-05T13:32:59;9.70;68.60
21805;DHT22;11064;47.102;15.452;2023-03-05T13:35:29;9.70;67.00
21805;DHT22;11064;47.102;15.452;2023-03-05T13:37:56;10.00;67.60
21805;DHT22;11064;47.102;15.452;2023-03-05T13:40:28;10.20;66.50
21805;DHT22;11064;47.102;15.452;2023-03-05T13:43:11;10.30;66.70
21805;DHT22;11064;47.102;15.452;2023-03-05T13:45:38;10.50;65.60
21805;DHT22;11064;47.102;15.452;2023-03-05T13:48:05;10.40;64.00
21805;DHT22;11064;47.102;15.452;2023-03-05T13:53:33;10.10;65.10
21805;DHT22;11064;47.102;15.452;2023-03-05T13:56:02;10.10;65.50
21805;DHT22;11064;47.102;15.452;2023-03-05T13:58:42;9.80;66.70
21805;DHT22;11064;47.102;15.452;2023-03-05T14:03:55;10.00;66.40
21805;DHT22;11064;47.102;15.452;2023-03-05T14:06:24;10.20;65.30
21805;DHT22;11064;47.102;15.452;2023-03-05T14:12:05;10.50;64.00
21805;DHT22;11064;47.102;15.452;2023-03-05T14:14:37;10.70;64.90
21805;DHT22;11064;47.102;15.452;2023-03-05T14:17:42;10.80;63.60
21805;DHT22;11064;47.102;15.452;2023-03-05T14:20:27;11.20;62.50
21805;DHT22;11064;47.102;15.452;2023-03-05T14:23:01;11.30;61.80
21805;DHT22;11064;47.102;15.452;2023-03-05T14:25:38;11.20;61.90
21805;DHT22;11064;47.102;15.452;2023-03-05T14:28:23;11.20;63.00
21805;DHT22;11064;47.102;15.452;2023-03-05T14:30:53;11.30;62.30
21805;DHT22;11064;47.102;15.452;2023-03-05T14:33:26;11.40;60.60
21805;DHT22;11064;47.102;15.452;2023-03-05T14:35:53;11.20;61.90
21805;DHT22;11064;47.102;15.452;2023-03-05T14:38:24;11.20;61.40
21805;DHT22;11064;47.102;15.452;2023-03-05T14:40:53;11.40;61.20
21805;DHT22;11064;47.102;15.452;2023-03-05T14:43:20;11.70;60.60
21805;DHT22;11064;47.102;15.452;2023-03-05T14:45:46;11.40;59.70
21805;DHT22;11064;47.102;15.452;2023-03-05T14:48:15;11.30;62.10
21805;DHT22;11064;47.102;15.452;2023-03-05T14:50:44;11.50;62.20
21805;DHT22;11064;47.102;15.452;2023-03-05T14:53:23;11.20;60.60
21805;DHT22;11064;47.102;15.452;2023-03-05T14:55:52;11.10;62.50
21805;DHT22;11064;47.102;15.452;2023-03-05T14:58:27;11.40;61.60
21805;DHT22;11064;47.102;15.452;2023-03-05T15:00:54;10.80;60.60
21805;DHT22;11064;47.102;15.452;2023-03-05T15:03:24;10.80;63.10
21805;DHT22;11064;47.102;15.452;2023-03-05T15:05:53;10.80;62.40
21805;DHT22;11064;47.102;15.452;2023-03-05T15:08:26;10.40;62.90
21805;DHT22;11064;47.102;15.452;2023-03-05T15:10:54;10.50;63.20
21805;DHT22;11064;47.102;15.452;2023-03-05T15:13:23;10.50;63.40
21805;DHT22;11064;47.102;15.452;2023-03-05T15:15:50;10.30;63.90
21805;DHT22;11064;47.102;15.452;2023-03-05T15:18:18;10.20;64.80
21805;DHT22;11064;47.102;15.452;2023-03-05T15:20:46;10.20;64.80
21805;DHT22;11064;47.102;15.452;2023-03-05T15:23:14;10.00;65.90
21805;DHT22;11064;47.102;15.452;2023-03-05T15:25:40;9.80;69.00
21805;DHT22;11064;47.102;15.452;2023-03-05T15:28:07;9.70;70.30
21805;DHT22;11064;47.102;15.452;2023-03-05T15:30:39;9.60;71.10
21805;DHT22;11064;47.102;15.452;2023-03-05T15:33:16;9.40;71.80
21805;DHT22;11064;47.102;15.452;2023-03-05T15:35:44;9.30;72.70
21805;DHT22;11064;47.102;15.452;2023-03-05T15:38:11;9.10;73.00
21805;DHT22;11064;47.102;15.452;2023-03-05T15:40:38;8.90;73.00
21805;DHT22;11064;47.102;15.452;2023-03-05T15:43:05;8.80;73.50
21805;DHT22;11064;47.102;15.452;2023-03-05T15:45:32;8.60;74.40
21805;DHT22;11064;47.102;15.452;2023-03-05T15:47:58;8.40;75.70
21805;DHT22;11064;47.102;15.452;2023-03-05T15:50:25;8.20;76.00
21805;DHT22;11064;47.102;15.452;2023-03-05T15:52:51;8.10;76.60
21805;DHT22;11064;47.102;15.452;2023-03-05T15:55:18;7.90;77.10
21805;DHT22;11064;47.102;15.452;2023-03-05T15:57:47;7.80;78.00
21805;DHT22;11064;47.102;15.452;2023-03-05T16:00:17;7.70;77.90
21805;DHT22;11064;47.102;15.452;2023-03-05T16:02:44;7.50;78.80
21805;DHT22;11064;47.102;15.452;2023-03-05T16:05:10;7.30;79.00
21805;DHT22;11064;47.102;15.452;2023-03-05T16:07:39;7.30;80.30
21805;DHT22;11064;47.102;15.452;2023-03-05T16:10:11;7.30;80.60
21805;DHT22;11064;47.102;15.452;2023-03-05T16:12:38;7.30;81.00
21805;DHT22;11064;47.102;15.452;2023-03-05T16:15:14;7.30;80.90
21805;DHT22;11064;47.102;15.452;2023-03-05T16:17:41;7.30;81.30
21805;DHT22;11064;47.102;15.452;2023-03-05T16:20:10;7.10;80.70
21805;DHT22;11064;47.102;15.452;2023-03-05T16:22:37;7.10;82.10
21805;DHT22;11064;47.102;15.452;2023-03-05T16:25:04;7.00;83.10
21805;DHT22;11064;47.102;15.452;2023-03-05T16:27:30;6.90;83.50
21805;DHT22;11064;47.102;15.452;2023-03-05T16:29:57;6.80;84.00
21805;DHT22;11064;47.102;15.452;2023-03-05T16:32:25;6.60;85.00
21805;DHT22;11064;47.102;15.452;2023-03-05T16:34:51;6.60;85.90
21805;DHT22;11064;47.102;15.452;2023-03-05T16:37:20;6.40;86.10
21805;DHT22;11064;47.102;15.452;2023-03-05T16:39:46;6.30;86.40
21805;DHT22;11064;47.102;15.452;2023-03-05T16:42:13;6.10;87.10
21805;DHT22;11064;47.102;15.452;2023-03-05T16:44:43;6.10;87.60
21805;DHT22;11064;47.102;15.452;2023-03-05T16:47:12;5.90;88.20
21805;DHT22;11064;47.102;15.452;2023-03-05T16:49:39;5.80;89.80
21805;DHT22;11064;47.102;15.452;2023-03-05T16:52:06;5.70;89.30
21805;DHT22;11064;47.102;15.452;2023-03-05T16:54:33;5.60;89.70
21805;DHT22;11064;47.102;15.452;2023-03-05T16:57:01;5.50;90.10
21805;DHT22;11064;47.102;15.452;2023-03-05T16:59:29;5.40;90.30
21805;DHT22;11064;47.102;15.452;2023-03-05T17:01:55;5.30;90.40
21805;DHT22;11064;47.102;15.452;2023-03-05T17:04:22;5.20;90.90
21805;DHT22;11064;47.102;15.452;2023-03-05T17:06:48;5.10;91.00
21805;DHT22;11064;47.102;15.452;2023-03-05T17:09:15;5.10;91.10
21805;DHT22;11064;47.102;15.452;2023-03-05T17:11:44;5.00;91.60
21805;DHT22;11064;47.102;15.452;2023-03-05T17:14:10;4.90;91.60
21805;DHT22;11064;47.102;15.452;2023-03-05T17:16:36;4.70;92.00
21805;DHT22;11064;47.102;15.452;2023-03-05T17:19:03;4.50;92.50
21805;DHT22;11064;47.102;15.452;2023-03-05T17:21:29;4.50;93.10
21805;DHT22;11064;47.102;15.452;2023-03-05T17:23:55;4.40;93.00
21805;DHT22;11064;47.102;15.452;2023-03-05T17:26:21;4.40;93.40
21805;DHT22;11064;47.102;15.452;2023-03-05T17:28:48;4.20;93.60
21805;DHT22;11064;47.102;15.452;2023-03-05T17:31:15;4.10;94.20
21805;DHT22;11064;47.102;15.452;2023-03-05T17:33:41;4.00;94.40
21805;DHT22;11064;47.102;15.452;2023-03-05T17:36:16;4.00;94.80
21805;DHT22;11064;47.102;15.452;2023-03-05T17:38:43;4.00;94.90
21805;DHT22;11064;47.102;15.452;2023-03-05T17:41:11;4.00;94.70
21805;DHT22;11064;47.102;15.452;2023-03-05T17:43:37;4.00;94.60
21805;DHT22;11064;47.102;15.452;2023-03-05T17:46:03;4.00;95.10
21805;DHT22;11064;47.102;15.452;2023-03-05T17:48:30;3.90;95.40
21805;DHT22;11064;47.102;15.452;2023-03-05T17:50:59;3.90;96.00
21805;DHT22;11064;47.102;15.452;2023-03-05T17:53:28;3.80;95.80
21805;DHT22;11064;47.102;15.452;2023-03-05T17:55:54;3.80;95.90
21805;DHT22;11064;47.102;15.452;2023-03-05T17:58:21;3.80;95.90
21805;DHT22;11064;47.102;15.452;2023-03-05T18:00:47;3.80;96.10
21805;DHT22;11064;47.102;15.452;2023-03-05T18:03:14;3.90;95.50
21805;DHT22;11064;47.102;15.452;2023-03-05T18:05:41;3.90;95.50
21805;DHT22;11064;47.102;15.452;2023-03-05T18:08:08;3.80;96.00
21805;DHT22;11064;47.102;15.452;2023-03-05T18:10:34;3.70;96.50
21805;DHT22;11064;47.102;15.452;2023-03-05T18:13:01;3.70;96.60
21805;DHT22;11064;47.102;15.452;2023-03-05T18:15:28;3.60;96.90
21805;DHT22;11064;47.102;15.452;2023-03-05T18:17:55;3.60;97.30
21805;DHT22;11064;47.102;15.452;2023-03-05T18:20:30;3.60;97.70
21805;DHT22;11064;47.102;15.452;2023-03-05T18:22:59;3.60;97.70
21805;DHT22;11064;47.102;15.452;2023-03-05T18:25:27;3.80;97.20
21805;DHT22;11064;47.102;15.452;2023-03-05T18:28:00;3.90;96.80
21805;DHT22;11064;47.102;15.452;2023-03-05T18:30:29;3.90;96.80
21805;DHT22;11064;47.102;15.452;2023-03-05T18:32:55;3.90;96.60
21805;DHT22;11064;47.102;15.452;2023-03-05T18:35:22;3.90;96.50
21805;DHT22;11064;47.102;15.452;2023-03-05T18:37:48;3.90;97.00
21805;DHT22;11064;47.102;15.452;2023-03-05T18:40:17;4.00;96.90
21805;DHT22;11064;47.102;15.452;2023-03-05T18:42:44;4.00;96.90
21805;DHT22;11064;47.102;15.452;2023-03-05T18:45:13;3.90;97.20
21805;DHT22;11064;47.102;15.452;2023-03-05T18:47:40;3.90;97.10
21805;DHT22;11064;47.102;15.452;2023-03-05T18:50:14;4.00;97.30
21805;DHT22;11064;47.102;15.452;2023-03-05T18:52:42;4.10;97.40
21805;DHT22;11064;47.102;15.452;2023-03-05T18:55:15;4.10;97.80
21805;DHT22;11064;47.102;15.452;2023-03-05T18:57:42;4.10;98.10
21805;DHT22;11064;47.102;15.452;2023-03-05T19:00:17;4.10;98.30
21805;DHT22;11064;47.102;15.452;2023-03-05T19:02:44;4.10;98.60
21805;DHT22;11064;47.102;15.452;2023-03-05T19:05:13;4.10;98.60
21805;DHT22;11064;47.102;15.452;2023-03-05T19:07:39;4.00;98.90
21805;DHT22;11064;47.102;15.452;2023-03-05T19:10:07;3.90;99.20
21805;DHT22;11064;47.102;15.452;2023-03-05T19:12:37;3.90;99.40
21805;DHT22;11064;47.102;15.452;2023-03-05T19:15:12;3.90;99.60
21805;DHT22;11064;47.102;15.452;2023-03-05T19:17:38;3.90;99.90
21805;DHT22;11064;47.102;15.452;2023-03-05T19:20:06;3.80;99.90
21805;DHT22;11064;47.102;15.452;2023-03-05T19:22:32;3.80;99.90
21805;DHT22;11064;47.102;15.452;2023-03-05T19:25:00;3.80;99.90
21805;DHT22;11064;47.102;15.452;2023-03-05T19:27:27;3.70;99.90
21805;DHT22;11064;47.102;15.452;2023-03-05T19:29:54;3.70;99.90
21805;DHT22;11064;47.102;15.452;2023-03-05T19:32:20;3.70;99.90
21805;DHT22;11064;47.102;15.452;2023-03-05T19:34:47;3.70;99.90
21805;DHT22;11064;47.102;15.452;2023-03-05T19:37:14;3.70;99.90
21805;DHT22;11064;47.102;15.452;2023-03-05T19:39:41;3.60;99.90
21805;DHT22;11064;47.102;15.452;2023-03-05T19:42:08;3.60;99.90
21805;DHT22;11064;47.102;15.452;2023-03-05T19:44:34;3.50;99.90
21805;DHT22;11064;47.102;15.452;2023-03-05T19:47:00;3.60;99.90
21805;DHT22;11064;47.102;15.452;2023-03-05T19:49:27;3.50;99.90
21805;DHT22;11064;47.102;15.452;2023-03-05T19:51:55;3.40;99.90
21805;DHT22;11064;47.102;15.452;2023-03-05T19:54:22;3.40;99.90
21805;DHT22;11064;47.102;15.452;2023-03-05T19:56:49;3.40;99.90
21805;DHT22;11064;47.102;15.452;2023-03-05T19:59:19;3.30;99.90
21805;DHT22;11064;47.102;15.452;2023-03-05T20:01:47;3.30;99.90
21805;DHT22;11064;47.102;15.452;2023-03-05T20:04:20;3.40;99.90
21805;DHT22;11064;47.102;15.452;2023-03-05T20:06:46;3.40;99.90
21805;DHT22;11064;47.102;15.452;2023-03-05T20:09:13;3.30;99.90
21805;DHT22;11064;47.102;15.452;2023-03-05T20:11:41;3.20;99.90
21805;DHT22;11064;47.102;15.452;2023-03-05T20:14:08;3.30;99.90
21805;DHT22;11064;47.102;15.452;2023-03-05T20:16:36;3.20;99.90
21805;DHT22;11064;47.102;15.452;2023-03-05T20:19:04;3.20;99.90
21805;DHT22;11064;47.102;15.452;2023-03-05T20:21:40;3.20;99.90
21805;DHT22;11064;47.102;15.452;2023-03-05T20:24:10;3.20;99.90
21805;DHT22;11064;47.102;15.452;2023-03-05T20:26:38;3.20;99.90
21805;DHT22;11064;47.102;15.452;2023-03-05T20:29:05;3.20;99.90
21805;DHT22;11064;47.102;15.452;2023-03-05T20:31:33;3.20;99.90
21805;DHT22;11064;47.102;15.452;2023-03-05T20:34:04;3.30;99.90
21805;DHT22;11064;47.102;15.452;2023-03-05T20:36:32;3.30;99.90
21805;DHT22;11064;47.102;15.452;2023-03-05T20:39:04;3.40;99.90
21805;DHT22;11064;47.102;15.452;2023-03-05T20:41:33;3.40;99.90
21805;DHT22;11064;47.102;15.452;2023-03-05T20:44:00;3.40;99.90
21805;DHT22;11064;47.102;15.452;2023-03-05T20:46:30;3.40;99.90
21805;DHT22;11064;47.102;15.452;2023-03-05T20:48:59;3.40;99.90
21805;DHT22;11064;47.102;15.452;2023-03-05T20:51:29;3.40;99.90
21805;DHT22;11064;47.102;15.452;2023-03-05T20:53:59;3.40;99.90
21805;DHT22;11064;47.102;15.452;2023-03-05T20:56:27;3.40;99.90
21805;DHT22;11064;47.102;15.452;2023-03-05T20:58:55;3.40;99.90
21805;DHT22;11064;47.102;15.452;2023-03-05T21:01:26;3.50;99.90
21805;DHT22;11064;47.102;15.452;2023-03-05T21:03:53;3.40;99.90
21805;DHT22;11064;47.102;15.452;2023-03-05T21:06:24;3.40;99.90
21805;DHT22;11064;47.102;15.452;2023-03-05T21:08:50;3.40;99.90
21805;DHT22;11064;47.102;15.452;2023-03-05T21:11:17;3.40;99.90
21805;DHT22;11064;47.102;15.452;2023-03-05T21:13:43;3.30;99.90
21805;DHT22;11064;47.102;15.452;2023-03-05T21:16:15;3.30;99.90
21805;DHT22;11064;47.102;15.452;2023-03-05T21:18:43;3.40;99.90
21805;DHT22;11064;47.102;15.452;2023-03-05T21:21:10;3.40;99.90
21805;DHT22;11064;47.102;15.452;2023-03-05T21:23:36;3.30;99.90
21805;DHT22;11064;47.102;15.452;2023-03-05T21:26:02;3.30;99.90
21805;DHT22;11064;47.102;15.452;2023-03-05T21:28:29;3.30;99.90
21805;DHT22;11064;47.102;15.452;2023-03-05T21:30:57;3.30;99.90
21805;DHT22;11064;47.102;15.452;2023-03-05T21:33:29;3.30;99.90
21805;DHT22;11064;47.102;15.452;2023-03-05T21:35:55;3.30;99.90
21805;DHT22;11064;47.102;15.452;2023-03-05T21:38:25;3.20;99.90
21805;DHT22;11064;47.102;15.452;2023-03-05T21:40:54;3.20;99.90
21805;DHT22;11064;47.102;15.452;2023-03-05T21:43:22;3.20;99.90
21805;DHT22;11064;47.102;15.452;2023-03-05T21:45:49;3.20;99.90
21805;DHT22;11064;47.102;15.452;2023-03-05T21:48:18;3.20;99.90
21805;DHT22;11064;47.102;15.452;2023-03-05T21:50:45;3.20;99.90
21805;DHT22;11064;47.102;15.452;2023-03-05T21:53:12;3.10;99.90
21805;DHT22;11064;47.102;15.452;2023-03-05T21:55:39;3.20;99.90
21805;DHT22;11064;47.102;15.452;2023-03-05T21:58:18;3.20;99.90
21805;DHT22;11064;47.102;15.452;2023-03-05T22:00:44;3.10;99.90
21805;DHT22;11064;47.102;15.452;2023-03-05T22:03:10;3.10;99.90
21805;DHT22;11064;47.102;15.452;2023-03-05T22:05:36;3.10;99.90
21805;DHT22;11064;47.102;15.452;2023-03-05T22:08:02;3.10;99.90
21805;DHT22;11064;47.102;15.452;2023-03-05T22:10:28;3.10;99.90
21805;DHT22;11064;47.102;15.452;2023-03-05T22:13:01;3.10;99.90
21805;DHT22;11064;47.102;15.452;2023-03-05T22:15:46;3.10;99.90
21805;DHT22;11064;47.102;15.452;2023-03-05T22:18:15;3.10;99.90
21805;DHT22;11064;47.102;15.452;2023-03-05T22:20:41;3.10;99.90
21805;DHT22;11064;47.102;15.452;2023-03-05T22:23:08;3.10;99.90
21805;DHT22;11064;47.102;15.452;2023-03-05T22:25:34;3.00;99.90
21805;DHT22;11064;47.102;15.452;2023-03-05T22:28:01;3.00;99.90
21805;DHT22;11064;47.102;15.452;2023-03-05T22:30:27;3.00;99.90
21805;DHT22;11064;47.102;15.452;2023-03-05T22:32:52;3.00;99.90
21805;DHT22;11064;47.102;15.452;2023-03-05T22:35:18;3.00;99.90
21805;DHT22;11064;47.102;15.452;2023-03-05T22:37:44;3.00;99.90
21805;DHT22;11064;47.102;15.452;2023-03-05T22:40:15;3.00;99.90
21805;DHT22;11064;47.102;15.452;2023-03-05T22:42:42;3.00;99.90
21805;DHT22;11064;47.102;15.452;2023-03-05T22:45:12;3.00;99.90
21805;DHT22;11064;47.102;15.452;2023-03-05T22:47:39;3.00;99.90
21805;DHT22;11064;47.102;15.452;2023-03-05T22:50:05;2.90;99.80
21805;DHT22;11064;47.102;15.452;2023-03-05T22:52:31;3.00;99.60
21805;DHT22;11064;47.102;15.452;2023-03-05T22:54:57;2.90;99.40
21805;DHT22;11064;47.102;15.452;2023-03-05T22:57:23;2.90;99.50
21805;DHT22;11064;47.102;15.452;2023-03-05T22:59:49;2.90;99.50
